Time;durP1;ratioP1;P1;durP2;ratioP2;P2;SDS_P1;SDS_P2;PMS_P1;PMS_P2;Temp;Humidity;BMP_temperature;BMP_pressure;BME280_temperature;BME280_humidity;BME280_pressure;Samples;Min_cycle;Max_cycle;Signal;HPM_P1;HPM_P2
2022/10/02 00:02:33;;;;;;;23.55;21.20;;;;;;;11.15;100.00;96609.88;6176418;23;19997;-66
2022/10/02 00:05:14;;;;;;;27.27;24.33;;;;;;;11.16;100.00;96609.75;6177182;23;20068;-66
2022/10/02 00:07:48;;;;;;;30.13;27.13;;;;;;;11.17;100.00;96613.22;6176460;23;20458;-66
2022/10/02 00:10:20;;;;;;;31.95;28.77;;;;;;;11.18;100.00;96615.75;6175691;23;20024;-66
2022/10/02 00:12:50;;;;;;;46.28;40.72;;;;;;;11.22;100.00;96607.59;6176565;23;20005;-66
2022/10/02 00:15:21;;;;;;;49.05;44.05;;;;;;;11.24;100.00;96613.56;6176582;23;20344;-66
2022/10/02 00:17:51;;;;;;;40.70;36.40;;;;;;;11.21;100.00;96605.91;6176469;23;20024;-67
2022/10/02 00:20:21;;;;;;;56.25;50.40;;;;;;;11.23;100.00;96622.44;6174522;23;20004;-69
2022/10/02 00:23:20;;;;;;;54.83;48.75;;;;;;;11.25;100.00;96615.25;6175919;23;20099;-62
2022/10/02 00:25:59;;;;;;;53.67;47.08;;;;;;;11.29;100.00;96614.88;6175800;23;20005;-63
2022/10/02 00:28:30;;;;;;;48.75;39.97;;;;;;;11.41;100.00;96615.69;6175999;23;20005;-63
2022/10/02 00:31:11;;;;;;;42.88;36.05;;;;;;;11.43;100.00;96619.03;6175505;23;20011;-63
2022/10/02 00:33:57;;;;;;;38.60;29.80;;;;;;;11.43;100.00;96629.56;6176861;23;20029;-64
2022/10/02 00:36:46;;;;;;;29.30;26.20;;;;;;;11.41;100.00;96623.59;6175758;22;20028;-64
2022/10/02 00:39:38;;;;;;;27.70;24.73;;;;;;;11.40;100.00;96629.84;6175019;23;20004;-61
2022/10/02 00:42:18;;;;;;;20.40;18.20;;;;;;;11.41;100.00;96649.09;6176940;23;20072;-71
2022/10/02 00:45:13;;;;;;;21.45;18.88;;;;;;;11.43;100.00;96657.72;6176528;23;20020;-71
2022/10/02 00:48:17;;;;;;;18.65;16.60;;;;;;;11.40;100.00;96658.84;6174849;23;20005;-72
2022/10/02 00:51:07;;;;;;;18.90;16.67;;;;;;;11.40;100.00;96668.53;6176015;23;20440;-73
2022/10/02 00:54:01;;;;;;;19.13;17.38;;;;;;;11.38;100.00;96663.38;6176576;23;20005;-73
2022/10/02 00:56:51;;;;;;;19.38;17.55;;;;;;;11.31;100.00;96664.81;6176458;23;20001;-72
2022/10/02 00:59:35;;;;;;;19.05;17.25;;;;;;;11.26;100.00;96667.00;6175752;23;19993;-63
2022/10/02 01:02:25;;;;;;;16.17;14.68;;;;;;;11.27;100.00;96673.94;6176285;23;20090;-64
2022/10/02 01:04:51;;;;;;;13.98;12.77;;;;;;;11.27;100.00;96666.88;6176431;23;20001;-64
2022/10/02 01:07:17;;;;;;;14.27;12.85;;;;;;;11.23;100.00;96659.34;6176370;23;20025;-64
2022/10/02 01:09:43;;;;;;;12.75;11.63;;;;;;;11.22;100.00;96662.94;6175234;23;20048;-64
2022/10/02 01:12:09;;;;;;;13.27;12.10;;;;;;;11.18;100.00;96659.69;6176310;23;20465;-64
2022/10/02 01:14:39;;;;;;;13.82;12.63;;;;;;;11.12;100.00;96653.09;6177179;23;19997;-64
2022/10/02 01:17:06;;;;;;;14.77;12.70;;;;;;;11.10;100.00;96657.66;6176459;23;20083;-72
2022/10/02 01:19:40;;;;;;;14.00;12.50;;;;;;;11.11;100.00;96661.16;6175318;23;20068;-70
2022/10/02 01:22:14;;;;;;;13.98;12.77;;;;;;;11.11;100.00;96650.59;6176430;23;19997;-72
2022/10/02 01:24:48;;;;;;;13.48;12.27;;;;;;;11.13;100.00;96646.88;6176393;23;20545;-73
2022/10/02 01:27:14;;;;;;;12.85;11.80;;;;;;;11.13;100.00;96652.16;6176475;23;20005;-71
2022/10/02 01:29:42;;;;;;;12.65;11.45;;;;;;;11.14;100.00;96661.72;6175082;23;20008;-73
2022/10/02 01:32:08;;;;;;;14.00;12.50;;;;;;;11.13;100.00;96662.69;6176118;23;20062;-73
2022/10/02 01:34:34;;;;;;;12.35;11.35;;;;;;;11.15;100.00;96663.41;6176887;23;20001;-72
2022/10/02 01:37:00;;;;;;;13.23;12.18;;;;;;;11.16;100.00;96665.09;6175955;23;20001;-61
2022/10/02 01:39:26;;;;;;;13.68;12.30;;;;;;;11.17;100.00;96650.97;6175233;23;20493;-64
2022/10/02 01:41:54;;;;;;;12.32;11.07;;;;;;;11.17;100.00;96642.22;6176103;23;19997;-63
2022/10/02 01:44:20;;;;;;;13.45;12.07;;;;;;;11.18;100.00;96638.59;6176286;22;20064;-64
2022/10/02 01:47:08;;;;;;;14.88;13.57;;;;;;;11.18;100.00;96647.38;6175717;23;20004;-63
2022/10/02 01:49:55;;;;;;;15.18;13.77;;;;;;;11.17;100.00;96650.97;6175009;23;20087;-64
2022/10/02 01:52:48;;;;;;;13.80;12.50;;;;;;;11.17;100.00;96640.44;6178804;22;20008;-63
2022/10/02 01:55:52;;;;;;;14.70;13.10;;;;;;;11.17;100.00;96636.94;6179851;23;20005;-64
2022/10/02 01:58:28;;;;;;;21.55;18.00;;;;;;;11.17;100.00;96643.06;6180049;23;20001;-67
2022/10/02 02:00:56;;;;;;;;;;;;;;;11.20;100.00;96641.13;6179988;23;20064;-68
2022/10/02 02:03:40;;;;;;;39.00;34.90;;;;;;;11.22;100.00;96634.75;6180154;23;19915;-68
2022/10/02 02:06:07;;;;;;;43.20;37.42;;;;;;;11.24;100.00;96637.28;6179386;23;20038;-68
2022/10/02 02:08:46;;;;;;;39.80;35.47;;;;;;;11.25;100.00;96637.16;6178226;23;20005;-68
2022/10/02 02:11:14;;;;;;;36.45;32.60;;;;;;;11.26;100.00;96644.09;6178995;23;20001;-68
2022/10/02 02:13:43;;;;;;;27.35;24.75;;;;;;;11.26;100.00;96638.00;6179598;23;20005;-59
2022/10/02 02:16:23;;;;;;;18.15;16.42;;;;;;;11.28;100.00;96641.34;6180118;23;20017;-71
2022/10/02 02:19:23;;;;;;;21.48;19.30;;;;;;;11.35;100.00;96633.78;6178488;23;20027;-60
2022/10/02 02:22:04;;;;;;;20.75;18.70;;;;;;;11.38;100.00;96628.25;6178453;23;20005;-60
2022/10/02 02:24:39;;;;;;;22.63;20.25;;;;;;;11.50;100.00;96629.06;6179391;23;19996;-60
2022/10/02 02:27:06;;;;;;;23.77;21.17;;;;;;;11.70;100.00;96633.56;6179326;23;20414;-61
2022/10/02 02:29:35;;;;;;;23.63;21.15;;;;;;;11.68;100.00;96642.56;6177919;23;20004;-60
2022/10/02 02:32:06;;;;;;;25.98;22.80;;;;;;;11.55;100.00;96626.88;6178825;23;20062;-60
2022/10/02 02:34:38;;;;;;;25.63;21.45;;;;;;;11.49;100.00;96630.03;6179175;23;19997;-71
2022/10/02 02:37:10;;;;;;;21.08;18.98;;;;;;;11.41;100.00;96625.38;6178453;23;20033;-71
2022/10/02 02:39:45;;;;;;;21.33;19.20;;;;;;;11.37;100.00;96616.03;6178066;23;20001;-71
2022/10/02 02:42:14;;;;;;;21.30;19.20;;;;;;;11.36;100.00;96620.47;6179138;23;19997;-71
2022/10/02 02:44:54;;;;;;;20.60;18.42;;;;;;;11.36;100.00;96614.38;6179369;23;20024;-70
2022/10/02 02:47:46;;;;;;;18.73;16.92;;;;;;;11.32;100.00;96611.13;6178202;23;19996;-71
2022/10/02 02:50:44;;;;;;;19.85;17.75;;;;;;;11.32;100.00;96611.13;6178174;23;20009;-71
2022/10/02 02:53:18;;;;;;;19.80;17.90;;;;;;;11.33;100.00;96612.81;6179745;22;20009;-64
2022/10/02 02:55:55;;;;;;;20.38;17.42;;;;;;;11.37;100.00;96619.50;6179468;23;20001;-71
2022/10/02 02:58:32;;;;;;;20.55;16.60;;;;;;;11.48;100.00;96621.28;6178194;23;20092;-59
2022/10/02 03:00:58;;;;;;;21.05;18.95;;;;;;;11.48;100.00;96618.63;6178003;23;20001;-59
2022/10/02 03:03:23;;;;;;;22.38;20.08;;;;;;;11.73;100.00;96629.84;6177198;23;20336;-59
2022/10/02 03:05:59;;;;;;;39.80;33.88;;;;;;;11.62;100.00;96625.44;6177221;23;20461;-59
2022/10/02 03:08:30;;;;;;;32.88;28.10;;;;;;;11.51;100.00;96626.31;6176208;23;20015;-58
2022/10/02 03:11:29;;;;;;;38.13;32.65;;;;;;;11.49;100.00;96622.13;6176715;23;20396;-58
2022/10/02 03:14:16;;;;;;;32.10;28.73;;;;;;;11.47;100.00;96614.31;6176837;23;20024;-61
2022/10/02 03:17:00;;;;;;;32.17;27.95;;;;;;;11.45;100.00;96621.53;6177078;23;20072;-64
2022/10/02 03:19:44;;;;;;;36.50;31.02;;;;;;;11.42;100.00;96613.88;6175772;23;20024;-64
2022/10/02 03:22:13;;;;;;;38.58;32.70;;;;;;;11.46;100.00;96615.28;6176455;23;20005;-64
2022/10/02 03:24:48;;;;;;;40.90;36.00;;;;;;;11.45;100.00;96605.69;6176907;23;20009;-64
2022/10/02 03:27:33;;;;;;;40.30;36.03;;;;;;;11.44;100.00;96619.84;6176970;23;20508;-64
2022/10/02 03:30:06;;;;;;;49.40;41.87;;;;;;;11.44;100.00;96614.56;6175827;23;20001;-64
2022/10/02 03:32:33;;;;;;;50.72;43.10;;;;;;;11.44;100.00;96614.56;6176339;23;20385;-70
2022/10/02 03:35:01;;;;;;;46.17;38.53;;;;;;;11.43;100.00;96612.91;6151066;23;20001;-63
2022/10/02 03:37:28;;;;;;;40.95;34.17;;;;;;;11.51;100.00;96609.66;6176553;23;19997;-63
2022/10/02 03:39:57;;;;;;;39.22;30.80;;;;;;;11.56;100.00;96599.56;6175743;23;20005;-63
2022/10/02 03:42:25;;;;;;;38.83;30.40;;;;;;;11.57;100.00;96593.31;6176286;23;20027;-64
2022/10/02 03:44:50;;;;;;;37.28;29.98;;;;;;;11.57;100.00;96590.69;6176981;23;20007;-63
2022/10/02 03:47:15;;;;;;;38.35;31.45;;;;;;;11.54;100.00;96594.44;6177024;23;20020;-63
2022/10/02 03:49:41;;;;;;;50.55;41.92;;;;;;;11.50;100.00;96586.88;6149392;23;20448;-63
2022/10/02 03:52:12;;;;;;;46.03;40.40;;;;;;;11.48;100.00;96594.09;6175996;23;20001;-67
2022/10/02 03:54:37;;;;;;;29.80;26.08;;;;;;;11.45;100.00;96590.72;6177179;23;20009;-70
2022/10/02 03:57:06;;;;;;;25.88;23.20;;;;;;;11.42;100.00;96590.13;6175860;23;20040;-71
2022/10/02 03:59:35;;;;;;;24.27;22.02;;;;;;;11.38;100.00;96583.44;6175724;23;19993;-71
2022/10/02 04:02:06;;;;;;;24.80;20.75;;;;;;;11.35;100.00;96594.25;6149259;22;20001;-70
2022/10/02 04:04:43;;;;;;;21.95;19.70;;;;;;;11.32;100.00;96595.31;6176701;23;20008;-70
2022/10/02 04:07:15;;;;;;;19.38;17.30;;;;;;;11.27;100.00;96601.00;6176380;23;20004;-70
2022/10/02 04:10:08;;;;;;;17.35;15.75;;;;;;;11.25;100.00;96600.25;6175462;23;20009;-64
2022/10/02 04:12:40;;;;;;;15.82;14.32;;;;;;;11.27;100.00;96603.63;6176192;23;20013;-71
2022/10/02 04:15:14;;;;;;;14.75;13.35;;;;;;;11.21;100.00;96590.09;6176080;23;20438;-71
2022/10/02 04:17:55;;;;;;;17.23;13.17;;;;;;;11.20;100.00;96593.69;6176395;23;20471;-71
2022/10/02 04:20:27;;;;;;;13.10;11.90;;;;;;;11.23;100.00;96593.44;6175409;23;20118;-71
2022/10/02 04:22:52;;;;;;;12.98;11.85;;;;;;;11.23;100.00;96593.44;6176719;23;20008;-71
2022/10/02 04:25:18;;;;;;;12.45;11.35;;;;;;;11.16;100.00;96587.81;6177388;22;20483;-70
2022/10/02 04:27:53;;;;;;;10.60;9.70;;;;;;;11.16;100.00;96596.59;6176419;23;20009;-71
2022/10/02 04:30:19;;;;;;;15.65;9.95;;;;;;;11.22;100.00;96604.94;6175731;23;20005;-64
2022/10/02 04:32:45;;;;;;;60.47;8.82;;;;;;;11.25;100.00;96602.88;6176707;22;20009;-64
2022/10/02 04:35:19;;;;;;;19.00;5.10;;;;;;;11.23;100.00;96604.81;6176476;23;20051;-64
2022/10/02 04:38:11;;;;;;;96.60;6.70;;;;;;;11.22;100.00;96608.41;6176580;23;19997;-64
2022/10/02 04:40:49;;;;;;;102.50;6.50;;;;;;;11.17;100.00;96600.88;6175157;23;20030;-64
2022/10/02 04:43:33;;;;;;;24.27;5.32;;;;;;;11.14;100.00;96613.47;6176399;23;20058;-64
2022/10/02 04:45:58;;;;;;;136.73;8.15;;;;;;;11.11;100.00;96608.44;6176150;23;20028;-64
2022/10/02 04:48:35;;;;;;;19.10;6.38;;;;;;;11.10;100.00;96593.59;6176182;23;20024;-60
2022/10/02 04:51:22;;;;;;;30.55;6.70;;;;;;;11.11;100.00;96608.44;6175086;23;20039;-73
2022/10/02 04:53:56;;;;;;;78.75;7.57;;;;;;;11.12;100.00;96607.47;6176428;23;20001;-64
2022/10/02 04:56:54;;;;;;;69.45;6.80;;;;;;;11.10;100.00;96602.31;6176845;23;20072;-64
2022/10/02 04:59:19;;;;;;;127.53;9.52;;;;;;;11.13;100.00;96595.97;6150947;23;20328;-64
2022/10/02 05:02:00;;;;;;;40.60;8.93;;;;;;;11.13;100.00;96599.44;6175555;23;20004;-65
2022/10/02 05:05:02;;;;;;;39.95;8.70;;;;;;;11.12;100.00;96610.94;6176700;23;20062;-64
2022/10/02 05:07:36;;;;;;;76.88;8.38;;;;;;;11.14;100.00;96611.66;6175883;23;19997;-64
2022/10/02 05:10:34;;;;;;;47.28;10.13;;;;;;;11.10;100.00;96602.31;6175585;23;20009;-70
2022/10/02 05:13:02;;;;;;;14.43;9.90;;;;;;;11.10;100.00;96607.59;6176446;23;20036;-65
2022/10/02 05:15:39;;;;;;;53.30;10.20;;;;;;;11.11;100.00;96598.72;6176501;23;20015;-65
2022/10/02 05:18:31;;;;;;;29.60;9.27;;;;;;;11.12;100.00;96604.84;6175735;23;20017;-64
2022/10/02 05:20:56;;;;;;;9.13;8.43;;;;;;;11.13;100.00;96609.97;6175628;23;20005;-64
2022/10/02 05:23:24;;;;;;;12.80;8.65;;;;;;;11.14;100.00;96614.28;6176731;23;20012;-65
2022/10/02 05:26:41;;;;;;;8.52;7.82;;;;;;;11.15;100.00;96613.31;6176297;23;20012;-65
2022/10/02 05:29:09;;;;;;;;;;;;;;;11.15;100.00;96609.88;6176348;23;20005;-65
2022/10/02 05:31:34;;;;;;;13.52;8.45;;;;;;;11.14;100.00;96606.38;6175422;23;19908;-72
2022/10/02 05:34:39;;;;;;;9.13;8.43;;;;;;;11.15;100.00;96600.16;6176390;23;20001;-73
2022/10/02 05:37:32;;;;;;;8.60;7.90;;;;;;;11.14;100.00;96595.00;6175987;23;19997;-73
2022/10/02 05:40:19;;;;;;;20.25;9.48;;;;;;;11.15;100.00;96586.97;6175118;23;20435;-73
2022/10/02 05:43:07;;;;;;;20.42;8.95;;;;;;;11.16;100.00;96585.19;6149168;23;20001;-73
2022/10/02 05:45:37;;;;;;;23.25;8.95;;;;;;;11.12;100.00;96579.31;6176072;23;20005;-60
2022/10/02 05:48:20;;;;;;;8.68;8.05;;;;;;;11.10;100.00;96581.25;6175656;23;20009;-70
2022/10/02 05:50:51;;;;;;;9.38;7.63;;;;;;;11.06;100.00;96581.63;6175156;23;20009;-64
2022/10/02 05:53:44;;;;;;;8.55;7.82;;;;;;;11.01;100.00;96579.34;6176282;23;20035;-64
2022/10/02 05:56:12;;;;;;;18.23;7.47;;;;;;;11.01;100.00;96589.91;6148849;23;20454;-64
2022/10/02 05:58:55;;;;;;;8.25;7.28;;;;;;;11.01;100.00;96582.81;6175102;23;20000;-64
2022/10/02 06:01:36;;;;;;;9.50;7.97;;;;;;;11.01;100.00;96592.53;6175145;23;19997;-64
2022/10/02 06:04:04;;;;;;;7.95;7.25;;;;;;;11.02;100.00;96602.94;6175605;23;20012;-64
2022/10/02 06:06:45;;;;;;;12.02;7.43;;;;;;;11.00;100.00;96590.84;6175645;23;20423;-64
2022/10/02 06:09:16;;;;;;;18.33;7.15;;;;;;;10.95;100.00;96596.47;6175446;22;20339;-68
2022/10/02 06:11:45;;;;;;;9.52;7.00;;;;;;;10.95;100.00;96599.13;6175370;23;20001;-67
2022/10/02 06:14:22;;;;;;;9.73;7.80;;;;;;;10.97;100.00;96606.91;6175413;23;20005;-67
2022/10/02 06:17:02;;;;;;;16.17;7.13;;;;;;;11.00;100.00;96619.84;6175578;22;20008;-67
2022/10/02 06:19:52;;;;;;;8.82;6.57;;;;;;;11.03;100.00;96622.22;6174904;23;20016;-67
2022/10/02 06:22:22;;;;;;;47.63;8.18;;;;;;;11.09;100.00;96636.72;6174439;23;20002;-67
2022/10/02 06:25:06;;;;;;;116.90;10.40;;;;;;;11.10;100.00;96633.13;6175495;23;20020;-64
2022/10/02 06:27:50;;;;;;;32.63;7.43;;;;;;;11.15;100.00;96636.22;6175683;23;20016;-67
2022/10/02 06:30:17;;;;;;;22.02;7.45;;;;;;;11.13;100.00;96646.88;6174922;22;20093;-67
2022/10/02 06:32:47;;;;;;;23.80;7.25;;;;;;;11.12;100.00;96650.47;6175546;23;20011;-68
2022/10/02 06:35:15;;;;;;;40.83;11.23;;;;;;;11.19;100.00;96653.47;6175385;23;20084;-67
2022/10/02 06:38:17;;;;;;;20.30;9.07;;;;;;;11.14;100.00;96653.81;6176019;23;20005;-67
2022/10/02 06:40:58;;;;;;;14.13;8.73;;;;;;;11.21;100.00;96653.34;6175850;23;20093;-67
2022/10/02 06:43:46;;;;;;;30.70;8.57;;;;;;;11.22;100.00;96660.31;6176994;23;20126;-72
2022/10/02 06:46:25;;;;;;;18.60;9.27;;;;;;;11.25;100.00;96652.97;6176879;23;20114;-72
2022/10/02 06:49:01;;;;;;;10.45;9.05;;;;;;;11.31;100.00;96643.72;6176409;23;20448;-71
2022/10/02 06:52:04;;;;;;;33.08;9.07;;;;;;;11.41;100.00;96638.56;6175965;23;20005;-72
2022/10/02 06:55:11;;;;;;;14.38;8.57;;;;;;;11.42;100.00;96627.06;6177940;23;20446;-72
2022/10/02 06:57:51;;;;;;;14.20;9.10;;;;;;;11.52;100.00;96625.34;6176607;23;19997;-72
2022/10/02 07:00:20;;;;;;;9.63;8.82;;;;;;;11.59;100.00;96625.66;6176170;23;19993;-72
2022/10/02 07:03:17;;;;;;;22.83;7.68;;;;;;;11.65;100.00;96626.97;6176507;22;20444;-64
2022/10/02 07:05:58;;;;;;;9.93;7.68;;;;;;;11.72;100.00;96612.34;6150128;22;20414;-64
2022/10/02 07:08:29;;;;;;;16.10;8.30;;;;;;;11.77;100.00;96606.66;6174684;23;20619;-64
2022/10/02 07:11:00;;;;;;;22.80;8.18;;;;;;;11.77;100.00;96604.03;6176199;23;20001;-64
2022/10/02 07:14:09;;;;;;;9.38;7.80;;;;;;;11.81;100.00;96602.81;6150464;23;20500;-63
2022/10/02 07:17:13;;;;;;;8.35;7.53;;;;;;;11.87;100.00;96603.13;6176297;23;19997;-63
2022/10/02 07:19:57;;;;;;;7.95;7.15;;;;;;;11.92;100.00;96602.75;6175902;23;20017;-64
2022/10/02 07:22:53;;;;;;;13.48;7.50;;;;;;;11.97;100.00;96605.03;6176704;23;20000;-60
2022/10/02 07:25:38;;;;;;;10.35;6.93;;;;;;;12.01;100.00;96615.22;6150956;22;20355;-63
2022/10/02 07:28:04;;;;;;;18.75;8.48;;;;;;;12.29;100.00;96610.25;6176159;23;20070;-64
2022/10/02 07:30:57;;;;;;;52.13;13.35;;;;;;;12.24;100.00;96606.34;6175240;23;20001;-63
2022/10/02 07:33:52;;;;;;;20.52;11.57;;;;;;;12.20;100.00;96600.47;6160980;23;20031;-64
2022/10/02 07:36:39;;;;;;;22.58;10.95;;;;;;;12.31;100.00;96608.31;6176059;23;20074;-63
2022/10/02 07:39:32;;;;;;;21.92;10.60;;;;;;;12.24;100.00;96601.88;6174375;23;20008;-63
2022/10/02 07:42:15;;;;;;;15.60;9.90;;;;;;;12.24;100.00;96599.22;6176034;22;20015;-58
2022/10/02 07:44:53;;;;;;;13.63;8.77;;;;;;;12.24;100.00;96588.69;6176688;23;20027;-66
2022/10/02 07:47:39;;;;;;;16.63;8.75;;;;;;;12.31;100.00;96586.34;6176064;23;20450;-69
2022/10/02 07:50:37;;;;;;;14.27;8.35;;;;;;;12.41;100.00;96586.41;6174996;23;20008;-69
2022/10/02 07:53:37;;;;;;;9.50;6.93;;;;;;;12.54;100.00;96592.31;6176762;23;20005;-69
2022/10/02 07:56:06;;;;;;;9.32;6.50;;;;;;;12.63;100.00;96592.47;6176991;23;20053;-69
2022/10/02 07:58:48;;;;;;;8.35;5.88;;;;;;;12.69;100.00;96576.09;6175640;23;20001;-69
2022/10/02 08:01:21;;;;;;;9.18;6.60;;;;;;;12.88;100.00;96588.56;6175755;23;20009;-63
2022/10/02 08:04:28;;;;;;;7.70;6.13;;;;;;;13.03;100.00;96596.94;6176853;22;20364;-64
2022/10/02 08:06:59;;;;;;;10.40;8.13;;;;;;;13.13;100.00;96595.13;6177427;23;20015;-63
2022/10/02 08:09:36;;;;;;;14.70;9.20;;;;;;;13.23;100.00;96607.56;6176040;23;19997;-63
2022/10/02 08:12:16;;;;;;;12.55;9.80;;;;;;;13.33;100.00;96596.03;6176027;22;20054;-64
2022/10/02 08:14:45;;;;;;;9.93;8.93;;;;;;;13.50;100.00;96595.50;6176516;23;20017;-64
2022/10/02 08:17:34;;;;;;;8.60;7.30;;;;;;;13.51;100.00;96600.69;6176106;23;20015;-63
2022/10/02 08:20:14;;;;;;;9.30;7.45;;;;;;;13.56;100.00;96608.19;6174984;23;20423;-69
2022/10/02 08:22:46;;;;;;;9.50;8.60;;;;;;;13.57;100.00;96605.41;6175406;23;20001;-67
2022/10/02 08:25:21;;;;;;;28.63;26.00;;;;;;;13.63;100.00;96616.41;6175903;22;20001;-60
2022/10/02 08:27:54;;;;;;;48.85;44.28;;;;;;;13.74;100.00;96622.41;6174923;23;20004;-60
2022/10/02 08:30:19;;;;;;;58.42;53.10;;;;;;;13.81;100.00;96617.38;6174775;23;20016;-60
2022/10/02 08:32:46;;;;;;;34.38;31.25;;;;;;;13.84;100.00;96624.22;6174386;23;20076;-60
2022/10/02 08:35:18;;;;;;;38.67;35.20;;;;;;;13.86;100.00;96631.03;6175707;23;20001;-60
2022/10/02 08:38:13;;;;;;;34.15;30.98;;;;;;;13.84;100.00;96632.16;6174694;23;20020;-60
2022/10/02 08:41:06;;;;;;;35.42;32.33;;;;;;;13.94;100.00;96640.09;6129280;23;20344;-69
2022/10/02 08:43:55;;;;;;;25.13;22.92;;;;;;;14.00;100.00;96640.38;6176655;23;19997;-66
2022/10/02 08:46:23;;;;;;;25.00;22.70;;;;;;;14.01;100.00;96649.97;6176459;23;20002;-68
2022/10/02 08:49:22;;;;;;;15.70;14.40;;;;;;;14.04;100.00;96647.06;6173906;23;20435;-68
2022/10/02 08:51:48;;;;;;;5.63;5.13;;;;;;;14.12;100.00;96643.69;6176590;23;20347;-68
2022/10/02 08:54:35;;;;;;;5.22;4.82;;;;;;;14.20;100.00;96640.34;6176918;23;20005;-68
2022/10/02 08:57:28;;;;;;;3.03;2.90;;;;;;;14.46;100.00;96650.34;6176750;22;20028;-68
2022/10/02 09:00:13;;;;;;;3.15;2.95;;;;;;;14.50;100.00;96642.94;6175330;23;20008;-64
2022/10/02 09:03:23;;;;;;;4.07;2.80;;;;;;;14.51;100.00;96641.97;6176399;23;20009;-64
2022/10/02 09:05:58;;;;;;;2.30;2.20;;;;;;;14.51;100.00;96628.72;6178262;23;20466;-64
2022/10/02 09:08:41;;;;;;;2.42;2.33;;;;;;;14.39;100.00;96633.34;6177063;23;20032;-64
2022/10/02 09:11:50;;;;;;;2.88;2.13;;;;;;;14.38;100.00;96629.03;6175575;23;20545;-64
2022/10/02 09:14:28;;;;;;;2.25;1.75;;;;;;;14.47;100.00;96633.47;6177655;23;20080;-64
2022/10/02 09:17:12;;;;;;;1.70;1.60;;;;;;;14.33;100.00;96635.59;6177623;23;20017;-64
2022/10/02 09:20:28;;;;;;;2.40;2.20;;;;;;;14.43;100.00;96640.88;6155755;23;20036;-64
2022/10/02 09:23:24;;;;;;;2.30;2.20;;;;;;;14.46;100.00;96642.38;6146634;23;20557;-58
2022/10/02 09:26:02;;;;;;;;;;;;;;;14.58;100.00;96643.06;6147262;23;20029;-58
2022/10/02 09:28:46;;;;;;;2.20;2.10;;;;;;;14.56;100.00;96622.03;6145986;22;19954;-58
2022/10/02 09:31:50;;;;;;;2.05;1.95;;;;;;;14.70;100.00;96622.50;6146157;23;20005;-58
2022/10/02 09:34:57;;;;;;;1.55;1.55;;;;;;;14.85;100.00;96620.28;6164435;23;20616;-58
2022/10/02 09:38:04;;;;;;;3.15;1.27;;;;;;;15.08;100.00;96615.41;6147036;23;20005;-68
2022/10/02 09:40:32;;;;;;;1.08;1.08;;;;;;;14.88;100.00;96607.56;6146059;23;20069;-64
2022/10/02 09:43:10;;;;;;;1.20;1.20;;;;;;;14.94;100.00;96603.47;6146229;23;20008;-63
2022/10/02 09:45:47;;;;;;;1.05;1.05;;;;;;;14.98;100.00;96610.16;6146493;23;20044;-63
2022/10/02 09:48:29;;;;;;;1.13;1.13;;;;;;;15.31;100.00;96596.44;6145772;23;19998;-64
2022/10/02 09:51:31;;;;;;;1.30;1.30;;;;;;;15.27;100.00;96587.13;6146118;23;20009;-64
2022/10/02 09:54:41;;;;;;;2.03;1.30;;;;;;;15.44;100.00;96588.97;6146624;23;20105;-64
2022/10/02 09:57:36;;;;;;;1.42;1.20;;;;;;;15.56;100.00;96591.38;6146361;23;19997;-63
2022/10/02 10:00:07;;;;;;;0.90;0.90;;;;;;;15.67;100.00;96596.47;6145781;23;19997;-57
2022/10/02 10:03:00;;;;;;;0.98;0.98;;;;;;;15.73;100.00;96587.06;6146038;23;20006;-58
2022/10/02 10:05:25;;;;;;;1.13;1.13;;;;;;;15.85;100.00;96590.31;6146151;23;20008;-58
2022/10/02 10:08:21;;;;;;;1.67;1.00;;;;;;;15.95;100.00;96585.78;6146298;23;20013;-58
2022/10/02 10:11:05;;;;;;;0.90;0.90;;;;;;;16.09;100.00;96575.59;6145624;23;20005;-57
2022/10/02 10:13:50;;;;;;;0.73;0.73;;;;;;;16.15;100.00;96570.50;6147234;23;20051;-58
2022/10/02 10:16:22;;;;;;;0.77;0.77;;;;;;;16.24;100.00;96575.88;6147804;23;20313;-64
2022/10/02 10:19:35;;;;;;;3.15;1.00;;;;;;;16.27;100.00;96581.72;6171381;23;20277;-65
2022/10/02 10:22:25;;;;;;;0.90;0.90;;;;;;;16.40;100.00;96577.78;6171076;23;20012;-60
2022/10/02 10:25:09;;;;;;;0.80;0.80;;;;;;;16.52;100.00;96587.19;6176914;23;20439;-59
2022/10/02 10:28:08;;;;;;;2.42;1.15;;;;;;;16.76;100.00;96580.31;6174926;23;20000;-58
2022/10/02 10:30:55;;;;;;;0.70;0.70;;;;;;;16.87;100.00;96582.69;6175029;23;20043;-60
2022/10/02 10:33:33;;;;;;;1.10;0.80;;;;;;;17.16;100.00;96576.19;6175582;23;20395;-60
2022/10/02 10:39:53;;;;;;;0.65;0.65;;;;;;;17.41;100.00;96575.41;6173075;23;20038;-72
2022/10/02 10:42:45;;;;;;;0.80;0.80;;;;;;;17.55;100.00;96571.25;6175336;23;20016;-71
2022/10/02 10:45:42;;;;;;;0.93;0.70;;;;;;;17.51;100.00;96561.94;6176182;22;20344;-71
2022/10/02 10:48:26;;;;;;;1.38;1.35;;;;;;;17.57;100.00;96564.78;6174709;23;20005;-69
2022/10/02 10:51:40;;;;;;;1.00;1.00;;;;;;;17.75;100.00;96561.13;6175355;23;20443;-69
2022/10/02 10:54:23;;;;;;;0.82;0.82;;;;;;;17.83;100.00;96571.78;6178078;23;20446;-62
2022/10/02 10:56:53;;;;;;;0.70;0.70;;;;;;;17.92;100.00;96567.28;6176228;23;20034;-70
2022/10/02 10:59:26;;;;;;;0.85;0.85;;;;;;;18.12;100.00;96572.31;6149886;22;20339;-67
2022/10/02 11:02:38;;;;;;;0.90;0.90;;;;;;;18.42;96.43;96572.59;6176432;23;20512;-67
2022/10/02 11:05:31;;;;;;;0.98;0.98;;;;;;;18.50;99.17;96571.75;6176603;23;20008;-66
2022/10/02 11:08:35;;;;;;;1.30;1.20;;;;;;;18.52;99.54;96572.41;6175453;23;20036;-68
2022/10/02 11:11:26;;;;;;;1.70;1.08;;;;;;;18.50;100.00;96577.94;6175940;23;20009;-68
2022/10/02 11:14:19;;;;;;;3.22;1.27;;;;;;;18.32;100.00;96572.78;6177156;22;20397;-69
2022/10/02 11:17:09;;;;;;;1.30;1.20;;;;;;;18.50;100.00;96580.59;6176718;23;20438;-63
2022/10/02 11:19:46;;;;;;;1.27;1.13;;;;;;;18.79;99.96;96575.66;6175663;23;20017;-59
2022/10/02 11:22:56;;;;;;;1.02;0.95;;;;;;;18.85;97.77;96575.81;6176294;22;20004;-59
2022/10/02 11:25:38;;;;;;;0.93;0.90;;;;;;;18.94;98.39;96576.59;6177645;23;20033;-58
2022/10/02 11:28:35;;;;;;;3.00;0.82;;;;;;;19.03;95.17;96575.63;6149452;22;20024;-59
2022/10/02 11:31:10;;;;;;;8.10;1.15;;;;;;;19.17;92.53;96578.53;6175898;23;20016;-59
2022/10/02 11:34:00;;;;;;;1.13;0.77;;;;;;;19.21;88.38;96581.69;6176724;23;20008;-66
2022/10/02 11:36:41;;;;;;;0.85;0.85;;;;;;;19.01;91.79;96572.28;6176578;23;19997;-65
2022/10/02 11:39:36;;;;;;;2.78;0.88;;;;;;;19.12;87.83;96568.41;6175454;23;19993;-66
2022/10/02 11:42:38;;;;;;;1.20;1.02;;;;;;;19.23;89.30;96574.34;6176677;23;20020;-68
2022/10/02 11:45:15;;;;;;;0.55;0.55;;;;;;;19.26;89.17;96572.16;6177377;23;20007;-67
2022/10/02 11:48:08;;;;;;;0.55;0.55;;;;;;;19.18;89.91;96570.38;6176572;23;20013;-66
2022/10/02 11:50:45;;;;;;;0.60;0.60;;;;;;;19.20;90.11;96575.50;6176018;22;20012;-68
2022/10/02 11:53:48;;;;;;;0.80;0.60;;;;;;;19.59;86.74;96571.94;6174471;23;20076;-74
2022/10/02 11:56:28;;;;;;;0.57;0.57;;;;;;;19.94;85.49;96568.88;6175893;23;20039;-63
2022/10/02 11:58:53;;;;;;;2.40;0.60;;;;;;;19.97;85.03;96562.34;6176253;22;20080;-64
2022/10/02 12:01:21;;;;;;;0.50;0.50;;;;;;;19.92;85.74;96567.41;6175526;23;20029;-63
2022/10/02 12:03:54;;;;;;;0.50;0.50;;;;;;;20.09;85.42;96562.75;6176258;23;20024;-64
2022/10/02 12:06:40;;;;;;;0.55;0.55;;;;;;;20.10;84.37;96565.22;6150373;22;20005;-63
2022/10/02 12:09:17;;;;;;;0.40;0.40;;;;;;;20.14;83.29;96563.03;6175770;23;20001;-63
2022/10/02 12:12:09;;;;;;;0.43;0.43;;;;;;;19.97;83.77;96549.81;6175838;23;20629;-61
2022/10/02 12:14:48;;;;;;;2.50;0.50;;;;;;;19.95;85.21;96546.50;6176897;23;20008;-62
2022/10/02 12:17:40;;;;;;;0.45;0.45;;;;;;;19.91;84.61;96542.53;6176029;22;20016;-61
2022/10/02 12:29:29;;;;;;;0.30;0.30;;;;;;;20.18;80.42;96524.22;6173906;23;20403;-60
2022/10/02 12:32:06;;;;;;;0.90;0.43;;;;;;;20.21;78.65;96525.72;6175088;23;19997;-64
2022/10/02 12:34:41;;;;;;;0.30;0.30;;;;;;;20.33;78.75;96514.38;6173981;22;20009;-64
2022/10/02 12:37:09;;;;;;;0.47;0.47;;;;;;;20.52;78.97;96514.88;6173554;23;20001;-64